createdAt,value
2022-08-26T00:02:07.330Z,102335.16
2022-08-26T00:04:34.935Z,102333.31
2022-08-26T00:07:02.563Z,102332.72
2022-08-26T00:09:30.614Z,102328.94
2022-08-26T00:11:58.156Z,102327.56
2022-08-26T00:14:30.813Z,102328.94
2022-08-26T00:16:58.998Z,102331.00
2022-08-26T00:19:27.397Z,102329.19
2022-08-26T00:21:55.178Z,102331.47
2022-08-26T00:24:24.046Z,102335.25
2022-08-26T00:26:51.853Z,102335.16
2022-08-26T00:29:19.744Z,102336.97
2022-08-26T00:31:49.430Z,102333.59
2022-08-26T00:34:19.404Z,102335.78
2022-08-26T00:36:51.740Z,102333.09
2022-08-26T00:39:20.262Z,102328.97
2022-08-26T00:41:48.834Z,102331.91
2022-08-26T00:44:17.277Z,102325.69
2022-08-26T00:46:49.248Z,102332.66
2022-08-26T00:49:27.702Z,102333.09
2022-08-26T00:52:01.100Z,102332.38
2022-08-26T00:54:33.063Z,102334.56
2022-08-26T00:57:19.325Z,102335.41
2022-08-26T00:59:55.243Z,102338.81
2022-08-26T01:02:23.388Z,102341.38
2022-08-26T01:04:58.047Z,102336.25
2022-08-26T01:07:27.446Z,102330.69
2022-08-26T01:09:56.517Z,102326.03
2022-08-26T01:12:25.126Z,102334.81
2022-08-26T01:14:52.973Z,102331.66
2022-08-26T01:17:20.569Z,102328.69
2022-08-26T01:19:54.320Z,102325.53
2022-08-26T01:22:32.811Z,102324.41
2022-08-26T01:25:03.423Z,102321.72
2022-08-26T01:27:32.979Z,102325.13
2022-08-26T01:30:02.233Z,102311.44
2022-08-26T01:32:32.790Z,102315.34
2022-08-26T01:35:01.162Z,102312.56
2022-08-26T01:37:34.739Z,102311.44
2022-08-26T01:40:03.329Z,102310.59
2022-08-26T01:42:31.383Z,102300.25
2022-08-26T01:45:10.234Z,102308.31
2022-08-26T01:47:39.012Z,102312.50
2022-08-26T01:50:13.290Z,102309.66
2022-08-26T01:52:51.682Z,102310.25
2022-08-26T01:55:33.137Z,102312.81
2022-08-26T01:58:06.508Z,102308.44
2022-08-26T02:00:36.397Z,102307.97
2022-08-26T02:03:18.476Z,102296.38
2022-08-26T02:05:53.650Z,102301.38
2022-08-26T02:08:32.764Z,102305.16
2022-08-26T02:11:00.398Z,102302.47
2022-08-26T02:13:31.375Z,102295.41
2022-08-26T02:16:03.897Z,102303.47
2022-08-26T02:18:37.576Z,102310.50
2022-08-26T02:21:07.940Z,102306.00
2022-08-26T02:23:38.169Z,102307.84
2022-08-26T02:26:12.060Z,102304.28
2022-08-26T02:28:55.386Z,102308.69
2022-08-26T02:31:23.949Z,102302.72
2022-08-26T02:33:51.647Z,102303.22
2022-08-26T02:36:25.111Z,102306.41
2022-08-26T02:38:56.502Z,102291.53
2022-08-26T02:41:24.363Z,102294.22
2022-08-26T02:43:52.474Z,102291.28
2022-08-26T02:46:21.430Z,102292.00
2022-08-26T02:48:55.839Z,102290.31
2022-08-26T02:51:23.637Z,102294.56
2022-08-26T02:53:51.511Z,102292.25
2022-08-26T02:56:19.179Z,102287.84
2022-08-26T02:58:47.157Z,102289.47
2022-08-26T03:01:31.584Z,102283.94
2022-08-26T03:04:01.379Z,102286.63
2022-08-26T03:06:29.251Z,102288.19
2022-08-26T03:08:57.103Z,102286.50
2022-08-26T03:11:29.639Z,102289.78
2022-08-26T03:14:00.730Z,102289.91
2022-08-26T03:16:37.669Z,102301.50
2022-08-26T03:19:07.334Z,102290.66
2022-08-26T03:21:37.494Z,102290.75
2022-08-26T03:24:06.035Z,102286.38
2022-08-26T03:26:33.586Z,102284.69
2022-08-26T03:29:19.974Z,102294.16
2022-08-26T03:31:47.628Z,102284.16
2022-08-26T03:34:17.282Z,102289.66
2022-08-26T03:36:45.881Z,102288.78
2022-08-26T03:39:13.879Z,102288.53
2022-08-26T03:41:42.102Z,102281.22
2022-08-26T03:44:09.537Z,102280.09
2022-08-26T03:46:38.540Z,102278.38
2022-08-26T03:49:06.857Z,102278.00
2022-08-26T03:51:38.818Z,102278.00
2022-08-26T03:54:08.537Z,102284.34
2022-08-26T03:56:36.750Z,102282.94
2022-08-26T03:59:07.629Z,102281.06
2022-08-26T04:01:36.152Z,102278.38
2022-08-26T04:04:04.307Z,102285.72
2022-08-26T04:06:40.094Z,102277.41
2022-08-26T04:09:11.328Z,102278.13
2022-08-26T04:11:41.968Z,102269.09
2022-08-26T04:14:17.611Z,102268.50
2022-08-26T04:16:48.450Z,102272.03
2022-08-26T04:19:17.850Z,102262.28
2022-08-26T04:21:47.870Z,102262.69
2022-08-26T04:24:17.541Z,102261.69
2022-08-26T04:26:45.445Z,102268.22
2022-08-26T04:29:18.991Z,102267.72
2022-08-26T04:31:48.247Z,102262.59
2022-08-26T04:34:16.928Z,102259.59
2022-08-26T04:36:45.066Z,102259.09
2022-08-26T04:39:16.787Z,102258.94
2022-08-26T04:41:48.648Z,102265.03
2022-08-26T04:44:17.270Z,102268.56
2022-08-26T04:46:45.345Z,102263.78
2022-08-26T04:49:13.762Z,102262.66
2022-08-26T04:51:41.290Z,102263.25
2022-08-26T04:54:11.584Z,102266.69
2022-08-26T04:56:41.870Z,102267.38
2022-08-26T04:59:17.029Z,102265.81
2022-08-26T05:01:48.660Z,102264.97
2022-08-26T05:04:19.649Z,102259.31
2022-08-26T05:06:49.336Z,102266.94
2022-08-26T05:09:18.639Z,102265.13
2022-08-26T05:11:48.523Z,102261.41
2022-08-26T05:14:23.329Z,102266.53
2022-08-26T05:16:51.600Z,102262.59
2022-08-26T05:19:19.808Z,102260.63
2022-08-26T05:21:49.407Z,102261.34
2022-08-26T05:24:18.207Z,102257.53
2022-08-26T05:26:47.344Z,102254.88
2022-08-26T05:29:16.698Z,102262.38
2022-08-26T05:31:44.383Z,102262.69
2022-08-26T05:34:11.880Z,102260.56
2022-08-26T05:36:40.231Z,102259.84
2022-08-26T05:39:10.515Z,102257.88
